createdAt,value
2023-05-05T00:00:01.071Z,2259.00
2023-05-05T00:01:01.063Z,2323.00
2023-05-05T00:02:01.100Z,2290.00
2023-05-05T00:03:01.144Z,2355.00
2023-05-05T00:04:01.095Z,2337.00
2023-05-05T00:05:01.037Z,2344.00
2023-05-05T00:06:01.052Z,2311.00
2023-05-05T00:07:01.035Z,2346.00
2023-05-05T00:08:01.004Z,2290.00
2023-05-05T00:09:01.022Z,2287.00
2023-05-05T00:10:01.004Z,2329.00
2023-05-05T00:11:00.983Z,2325.00
2023-05-05T00:12:00.975Z,2272.00
2023-05-05T00:13:00.972Z,2222.00
2023-05-05T00:14:00.953Z,2241.00
2023-05-05T00:15:00.946Z,2300.00
2023-05-05T00:16:00.954Z,2314.00
2023-05-05T00:17:00.975Z,2316.00
2023-05-05T00:18:00.984Z,2291.00
2023-05-05T00:19:00.962Z,2309.00
2023-05-05T00:20:00.920Z,2318.00
2023-05-05T00:21:00.949Z,2275.00
2023-05-05T00:22:00.924Z,2230.00
2023-05-05T00:23:00.914Z,2213.00
2023-05-05T00:24:00.883Z,2237.00
2023-05-05T00:25:00.892Z,2256.00
2023-05-05T00:26:00.887Z,2267.00
2023-05-05T00:27:00.883Z,2251.00
2023-05-05T00:28:00.875Z,2221.00
2023-05-05T00:29:00.899Z,2252.00
2023-05-05T00:30:00.860Z,2234.00
2023-05-05T00:31:00.859Z,2239.00
2023-05-05T00:32:00.847Z,2250.00
2023-05-05T00:33:00.836Z,2242.00
2023-05-05T00:34:00.844Z,2278.00
2023-05-05T00:35:00.813Z,2257.00
2023-05-05T00:36:00.829Z,2326.00
2023-05-05T00:37:00.797Z,2340.00
2023-05-05T00:38:00.800Z,2274.00
2023-05-05T00:39:00.835Z,2306.00
2023-05-05T00:40:00.777Z,2336.00
2023-05-05T00:41:00.761Z,2315.00
2023-05-05T00:42:00.758Z,2342.00
2023-05-05T00:43:00.789Z,2370.00
2023-05-05T00:44:00.761Z,2455.00
2023-05-05T00:45:00.741Z,2453.00
2023-05-05T00:46:00.748Z,2445.00
2023-05-05T00:47:00.738Z,2472.00
2023-05-05T00:48:00.889Z,2510.00
2023-05-05T00:49:00.723Z,2528.00
2023-05-05T00:50:00.711Z,2520.00
2023-05-05T00:51:00.728Z,2550.00
2023-05-05T00:52:00.679Z,2579.00
2023-05-05T00:53:00.679Z,2604.00
2023-05-05T00:54:00.688Z,2636.00
2023-05-05T00:55:00.693Z,2601.00
2023-05-05T00:56:00.668Z,2580.00
2023-05-05T00:57:00.656Z,2544.00
2023-05-05T00:58:00.649Z,2502.00
2023-05-05T00:59:00.641Z,2494.00
2023-05-05T01:00:00.637Z,2497.00
2023-05-05T01:01:00.627Z,2479.00
2023-05-05T01:02:00.695Z,2477.00
2023-05-05T01:03:00.682Z,2469.00
2023-05-05T01:04:00.642Z,2494.00
2023-05-05T01:05:00.586Z,2458.00
2023-05-05T01:06:00.573Z,2498.00
2023-05-05T01:07:00.582Z,2458.00
2023-05-05T01:08:00.570Z,2469.00
2023-05-05T01:09:00.556Z,2460.00
2023-05-05T01:10:14.958Z,2480.00
2023-05-05T01:11:01.558Z,2476.00
2023-05-05T01:12:00.557Z,2482.00
2023-05-05T01:13:00.643Z,2481.00
2023-05-05T01:14:00.516Z,2474.00
2023-05-05T01:15:00.509Z,2503.00
2023-05-05T01:16:00.536Z,2506.00
2023-05-05T01:17:00.507Z,2495.00
2023-05-05T01:18:00.529Z,2474.00
2023-05-05T01:19:00.496Z,2459.00
2023-05-05T01:20:00.466Z,2492.00
2023-05-05T01:21:00.469Z,2506.00
2023-05-05T01:22:00.488Z,2512.00
2023-05-05T01:23:00.453Z,2537.00
2023-05-05T01:24:00.430Z,2519.00
2023-05-05T01:25:00.466Z,2501.00
2023-05-05T01:26:00.420Z,2489.00
2023-05-05T01:27:00.409Z,2515.00
2023-05-05T01:28:00.417Z,2509.00
2023-05-05T01:29:00.427Z,2475.00
2023-05-05T01:30:00.463Z,2478.00
2023-05-05T01:31:00.467Z,2498.00
2023-05-05T01:32:00.603Z,2524.00
2023-05-05T01:33:00.537Z,2542.00
2023-05-05T01:34:00.493Z,2506.00
2023-05-05T01:35:00.587Z,2525.00
2023-05-05T01:36:00.607Z,2525.00
2023-05-05T01:37:00.617Z,2560.00
2023-05-05T01:38:00.628Z,2587.00
2023-05-05T01:39:00.655Z,2550.00
2023-05-05T01:40:00.640Z,2542.00
2023-05-05T01:41:00.640Z,2504.00
2023-05-05T01:42:00.647Z,2533.00
2023-05-05T01:43:00.660Z,2548.00
2023-05-05T01:44:00.668Z,2537.00
2023-05-05T01:45:00.717Z,2538.00
2023-05-05T01:46:00.782Z,2525.00
2023-05-05T01:47:00.736Z,2566.00
2023-05-05T01:48:00.767Z,2551.00
2023-05-05T01:49:00.774Z,2572.00
2023-05-05T01:50:00.804Z,2531.00
2023-05-05T01:51:00.813Z,2505.00
2023-05-05T01:52:00.817Z,2513.00
2023-05-05T01:53:00.836Z,2531.00
2023-05-05T01:54:00.865Z,2525.00
2023-05-05T01:55:00.919Z,2510.00
2023-05-05T01:56:00.937Z,2522.00
2023-05-05T01:57:00.952Z,2546.00
2023-05-05T01:58:00.952Z,2519.00
2023-05-05T01:59:00.969Z,2517.00
2023-05-05T02:00:00.980Z,2552.00
2023-05-05T02:01:01.019Z,2554.00
2023-05-05T02:02:01.088Z,2534.00
2023-05-05T02:03:01.104Z,2556.00
2023-05-05T02:04:01.028Z,2532.00
2023-05-05T02:05:01.053Z,2545.00
2023-05-05T02:06:01.063Z,2529.00
2023-05-05T02:07:01.084Z,2560.00
2023-05-05T02:08:01.091Z,2537.00
2023-05-05T02:09:01.112Z,2558.00
2023-05-05T02:10:01.122Z,2572.00
2023-05-05T02:11:01.151Z,2577.00
2023-05-05T02:12:01.148Z,2588.00
2023-05-05T02:13:01.180Z,2555.00
2023-05-05T02:14:01.261Z,2561.00
2023-05-05T02:15:01.216Z,2574.00
2023-05-05T02:16:01.272Z,2593.00
2023-05-05T02:17:01.229Z,2563.00
2023-05-05T02:18:01.290Z,2533.00
2023-05-05T02:19:01.267Z,2581.00
2023-05-05T02:20:01.344Z,2588.00
2023-05-05T02:21:01.286Z,2610.00
2023-05-05T02:22:01.314Z,2600.00
2023-05-05T02:23:01.312Z,2572.00
2023-05-05T02:24:01.393Z,2571.00
2023-05-05T02:25:01.391Z,2558.00
2023-05-05T02:26:01.401Z,2561.00
2023-05-05T02:27:01.417Z,2572.00
2023-05-05T02:28:01.441Z,2583.00
2023-05-05T02:29:01.554Z,2583.00
2023-05-05T02:30:01.548Z,2572.00
2023-05-05T02:31:01.614Z,2583.00
2023-05-05T02:32:01.579Z,2596.00
2023-05-05T02:33:01.614Z,2594.00
2023-05-05T02:34:01.622Z,2581.00
2023-05-05T02:35:01.732Z,2602.00
2023-05-05T02:36:01.820Z,2582.00
2023-05-05T02:37:01.822Z,2583.00
2023-05-05T02:38:01.870Z,2586.00
2023-05-05T02:39:01.816Z,2599.00
2023-05-05T02:40:01.918Z,2595.00
2023-05-05T02:41:01.993Z,2616.00
2023-05-05T02:42:01.949Z,2605.00
2023-05-05T02:43:01.996Z,2581.00
2023-05-05T02:44:01.962Z,2590.00
2023-05-05T02:45:01.992Z,2572.00
2023-05-05T02:46:02.054Z,2574.00
2023-05-05T02:47:02.009Z,2575.00
2023-05-05T02:48:02.060Z,2581.00
2023-05-05T02:49:02.045Z,2549.00
2023-05-05T02:50:02.060Z,2574.00
2023-05-05T02:51:02.068Z,2596.00
2023-05-05T02:52:02.068Z,2587.00
2023-05-05T02:53:02.075Z,2567.00
2023-05-05T02:54:02.084Z,2570.00
2023-05-05T02:55:02.090Z,2556.00
2023-05-05T02:56:02.096Z,2574.00
2023-05-05T02:57:02.114Z,2578.00
2023-05-05T02:58:02.133Z,2573.00
2023-05-05T02:59:02.137Z,2597.00
2023-05-05T03:00:02.123Z,2608.00
2023-05-05T03:01:02.140Z,2602.00
2023-05-05T03:02:02.153Z,2590.00
2023-05-05T03:03:02.239Z,2575.00
2023-05-05T03:04:02.167Z,2588.00
2023-05-05T03:05:02.182Z,2580.00
2023-05-05T03:06:02.202Z,2578.00
2023-05-05T03:07:02.226Z,2579.00
2023-05-05T03:08:02.338Z,2576.00
2023-05-05T03:09:02.235Z,2581.00
2023-05-05T03:10:02.228Z,2587.00
2023-05-05T03:11:02.266Z,2578.00
2023-05-05T03:12:02.271Z,2587.00
2023-05-05T03:13:02.376Z,2576.00
2023-05-05T03:14:02.260Z,2579.00
2023-05-05T03:15:02.329Z,2587.00
2023-05-05T03:16:02.369Z,2576.00
2023-05-05T03:17:02.361Z,2563.00
2023-05-05T03:18:02.377Z,2568.00
2023-05-05T03:19:02.347Z,2556.00
2023-05-05T03:20:03.814Z,2569.00
2023-05-05T03:21:02.389Z,2550.00
2023-05-05T03:22:02.377Z,2558.00
2023-05-05T03:23:02.383Z,2548.00
2023-05-05T03:24:02.400Z,2547.00
2023-05-05T03:25:02.422Z,2526.00
2023-05-05T03:26:02.410Z,2522.00
2023-05-05T03:27:02.395Z,2522.00
2023-05-05T03:28:02.440Z,2518.00
2023-05-05T03:29:02.424Z,2512.00
2023-05-05T03:30:02.427Z,2514.00
2023-05-05T03:31:02.429Z,2515.00
2023-05-05T03:32:02.452Z,2517.00
2023-05-05T03:33:02.431Z,2489.00
2023-05-05T03:34:02.426Z,2500.00
2023-05-05T03:35:02.442Z,2508.00
2023-05-05T03:36:02.454Z,2499.00
2023-05-05T03:37:02.438Z,2487.00
2023-05-05T03:38:02.447Z,2500.00
2023-05-05T03:39:02.486Z,2500.00
2023-05-05T03:40:02.473Z,2471.00
2023-05-05T03:41:02.509Z,2491.00
2023-05-05T03:42:02.479Z,2485.00
2023-05-05T03:43:02.526Z,2490.00
2023-05-05T03:44:02.544Z,2472.00
2023-05-05T03:45:02.550Z,2481.00
2023-05-05T03:46:02.564Z,2506.00
2023-05-05T03:47:02.567Z,2495.00
2023-05-05T03:48:02.582Z,2536.00
2023-05-05T03:49:02.572Z,2516.00
2023-05-05T03:50:02.555Z,2494.00
2023-05-05T03:51:02.594Z,2524.00
2023-05-05T03:52:02.614Z,2529.00
2023-05-05T03:53:02.609Z,2539.00
2023-05-05T03:54:02.607Z,2543.00
2023-05-05T03:55:02.601Z,2511.00
2023-05-05T03:56:02.597Z,2511.00
2023-05-05T03:57:02.612Z,2533.00
2023-05-05T03:58:02.623Z,2541.00
2023-05-05T03:59:02.633Z,2546.00
2023-05-05T04:00:02.613Z,2548.00
2023-05-05T04:01:02.616Z,2566.00
2023-05-05T04:02:02.642Z,2556.00
2023-05-05T04:03:02.743Z,2528.00
2023-05-05T04:04:02.734Z,2542.00
2023-05-05T04:05:02.687Z,2490.00
2023-05-05T04:06:02.699Z,2492.00
2023-05-05T04:07:02.707Z,2503.00
2023-05-05T04:08:02.726Z,2513.00
2023-05-05T04:09:02.721Z,2485.00
2023-05-05T04:10:02.763Z,2496.00
2023-05-05T04:11:02.815Z,2503.00
2023-05-05T04:12:02.772Z,2512.00
2023-05-05T04:13:02.820Z,2498.00
2023-05-05T04:14:02.818Z,2499.00
2023-05-05T04:15:02.818Z,2500.00
2023-05-05T04:16:02.823Z,2489.00
2023-05-05T04:17:02.834Z,2469.00
2023-05-05T04:18:02.897Z,2480.00
2023-05-05T04:19:02.809Z,2450.00
2023-05-05T04:20:02.818Z,2460.00
2023-05-05T04:21:02.859Z,2472.00
2023-05-05T04:22:02.848Z,2462.00
2023-05-05T04:23:02.857Z,2425.00
2023-05-05T04:24:02.871Z,2424.00
2023-05-05T04:25:02.906Z,2424.00
2023-05-05T04:26:02.922Z,2438.00
2023-05-05T04:27:02.897Z,2440.00
2023-05-05T04:28:02.927Z,2427.00
2023-05-05T04:29:02.917Z,2430.00
2023-05-05T04:30:02.939Z,2425.00
2023-05-05T04:31:02.957Z,2407.00
2023-05-05T04:32:02.937Z,2429.00
2023-05-05T04:33:02.997Z,2417.00
2023-05-05T04:34:02.983Z,2444.00
2023-05-05T04:35:02.993Z,2443.00
2023-05-05T04:36:02.966Z,2415.00
2023-05-05T04:37:02.985Z,2428.00
2023-05-05T04:38:03.003Z,2428.00
2023-05-05T04:39:03.065Z,2421.00
2023-05-05T04:40:02.995Z,2408.00
2023-05-05T04:41:03.034Z,2405.00
2023-05-05T04:42:03.035Z,2407.00
2023-05-05T04:43:03.036Z,2402.00
2023-05-05T04:44:03.045Z,2398.00
2023-05-05T04:45:03.051Z,2372.00
2023-05-05T04:46:03.049Z,2357.00
2023-05-05T04:47:03.031Z,2334.00
2023-05-05T04:48:03.095Z,2330.00
2023-05-05T04:49:03.060Z,2359.00
2023-05-05T04:50:03.057Z,2377.00
2023-05-05T04:51:03.057Z,2344.00
2023-05-05T04:52:03.088Z,2353.00
2023-05-05T04:53:03.088Z,2351.00
2023-05-05T04:54:03.089Z,2349.00
2023-05-05T04:55:03.103Z,2360.00
2023-05-05T04:56:03.123Z,2326.00
2023-05-05T04:57:03.112Z,2350.00
2023-05-05T04:58:03.116Z,2321.00
2023-05-05T04:59:03.131Z,2320.00
2023-05-05T05:00:03.129Z,2320.00
2023-05-05T05:01:03.135Z,2308.00
2023-05-05T05:02:03.167Z,2295.00
2023-05-05T05:03:03.250Z,2290.00
2023-05-05T05:04:03.274Z,2293.00
2023-05-05T05:05:03.159Z,2290.00
2023-05-05T05:06:03.184Z,2279.00
2023-05-05T05:07:03.187Z,2276.00
2023-05-05T05:08:03.233Z,2312.00
2023-05-05T05:09:03.262Z,2297.00
2023-05-05T05:10:03.300Z,2314.00
2023-05-05T05:11:03.351Z,2298.00
2023-05-05T05:12:03.402Z,2295.00
2023-05-05T05:13:03.522Z,2302.00
2023-05-05T05:14:03.516Z,2313.00
2023-05-05T05:15:03.591Z,2301.00
2023-05-05T05:16:03.697Z,2328.00
2023-05-05T05:17:03.709Z,2330.00
2023-05-05T05:18:03.789Z,2319.00
2023-05-05T05:19:03.811Z,2317.00
2023-05-05T05:20:03.892Z,2351.00
2023-05-05T05:21:03.940Z,2364.00
2023-05-05T05:22:04.037Z,2388.00
2023-05-05T05:23:04.056Z,2392.00
2023-05-05T05:24:04.128Z,2393.00
2023-05-05T05:25:04.194Z,2404.00
2023-05-05T05:26:04.287Z,2393.00
2023-05-05T05:27:04.315Z,2378.00
2023-05-05T05:28:09.528Z,2383.00
2023-05-05T05:29:05.374Z,2384.00
2023-05-05T05:30:04.366Z,2385.00
2023-05-05T05:31:04.354Z,2388.00
2023-05-05T05:32:04.381Z,2334.00
2023-05-05T05:33:04.392Z,2129.00
2023-05-05T05:34:04.788Z,2060.00
2023-05-05T05:35:04.307Z,2069.00
2023-05-05T05:36:04.301Z,1923.00
2023-05-05T05:37:04.290Z,1929.00
2023-05-05T05:38:04.314Z,1857.00
2023-05-05T05:39:04.291Z,1846.00
2023-05-05T05:40:04.288Z,1890.00
2023-05-05T05:41:04.278Z,1950.00
2023-05-05T05:42:04.284Z,2042.00
2023-05-05T05:43:04.320Z,2115.00
2023-05-05T05:44:04.335Z,2175.00
2023-05-05T05:45:04.325Z,2256.00
2023-05-05T05:46:05.389Z,2317.00
2023-05-05T05:47:04.471Z,2375.00
2023-05-05T05:48:04.566Z,2388.00
2023-05-05T05:49:04.471Z,2382.00
2023-05-05T05:50:04.489Z,2348.00
2023-05-05T05:51:04.524Z,2343.00
2023-05-05T05:52:04.560Z,2292.00
2023-05-05T05:53:04.602Z,2243.00
2023-05-05T05:54:04.653Z,2235.00
2023-05-05T05:55:04.699Z,2303.00
2023-05-05T05:56:04.776Z,2425.00
2023-05-05T05:57:04.829Z,2479.00
2023-05-05T05:58:04.876Z,2478.00
2023-05-05T05:59:04.929Z,2471.00
2023-05-05T06:00:04.957Z,2513.00
2023-05-05T06:01:05.019Z,2537.00
2023-05-05T06:02:05.036Z,2575.00
2023-05-05T06:03:05.105Z,2592.00
2023-05-05T06:04:05.355Z,2581.00
2023-05-05T06:05:05.107Z,2531.00
2023-05-05T06:06:05.117Z,2575.00
2023-05-05T06:07:05.137Z,2614.00
2023-05-05T06:08:05.216Z,2645.00
2023-05-05T06:09:05.186Z,2652.00
2023-05-05T06:10:22.862Z,2658.00
2023-05-05T06:11:06.215Z,2659.00
2023-05-05T06:12:05.194Z,2666.00
2023-05-05T06:13:05.230Z,2676.00
2023-05-05T06:14:05.197Z,2706.00
2023-05-05T06:15:05.188Z,2739.00
2023-05-05T06:16:05.257Z,2763.00
2023-05-05T06:17:05.153Z,2773.00
2023-05-05T06:18:05.189Z,2790.00
2023-05-05T06:19:05.310Z,2802.00
2023-05-05T06:20:05.190Z,2810.00
2023-05-05T06:21:05.134Z,2800.00
2023-05-05T06:22:05.138Z,2809.00
2023-05-05T06:23:05.112Z,2825.00
2023-05-05T06:24:05.118Z,2843.00
2023-05-05T06:25:05.105Z,2849.00
2023-05-05T06:26:05.089Z,2842.00
2023-05-05T06:27:05.083Z,2846.00
2023-05-05T06:28:05.078Z,2863.00
2023-05-05T06:29:05.084Z,2877.00
2023-05-05T06:30:05.071Z,2870.00
2023-05-05T06:31:05.105Z,2881.00
2023-05-05T06:32:05.322Z,2769.00
2023-05-05T06:33:05.065Z,2478.00
2023-05-05T06:34:05.026Z,2174.00
2023-05-05T06:35:05.035Z,2002.00
2023-05-05T06:36:05.084Z,2031.00
2023-05-05T06:37:05.122Z,2025.00
2023-05-05T06:38:05.139Z,2041.00
2023-05-05T06:39:05.211Z,2187.00
2023-05-05T06:40:05.206Z,2287.00
2023-05-05T06:41:05.251Z,2336.00
2023-05-05T06:42:05.261Z,2382.00
2023-05-05T06:43:05.305Z,2373.00
2023-05-05T06:44:05.317Z,2410.00
2023-05-05T06:45:05.331Z,2435.00
2023-05-05T06:46:05.358Z,2462.00
2023-05-05T06:47:05.945Z,2487.00
2023-05-05T06:48:05.398Z,2482.00
2023-05-05T06:49:05.348Z,2457.00
2023-05-05T06:50:05.508Z,2431.00
2023-05-05T06:51:05.368Z,2276.00
2023-05-05T06:52:05.378Z,2317.00
2023-05-05T06:53:05.384Z,2231.00
2023-05-05T06:54:05.810Z,2140.00
2023-05-05T06:55:05.415Z,2032.00
2023-05-05T06:56:05.405Z,1935.00
2023-05-05T06:57:05.507Z,1919.00
2023-05-05T06:58:05.413Z,1918.00
2023-05-05T06:59:05.432Z,1901.00
2023-05-05T07:00:05.627Z,1842.00
2023-05-05T07:01:05.473Z,1717.00
2023-05-05T07:02:05.433Z,1813.00
2023-05-05T07:03:05.478Z,1717.00
2023-05-05T07:04:05.496Z,1400.00
2023-05-05T07:05:05.496Z,1153.00
2023-05-05T07:06:05.491Z,923.00
2023-05-05T07:07:05.526Z,792.00
2023-05-05T07:08:05.581Z,659.00
2023-05-05T07:09:05.817Z,605.00
2023-05-05T07:10:05.724Z,615.00
2023-05-05T07:11:05.664Z,645.00
2023-05-05T07:12:05.833Z,648.00
2023-05-05T07:13:05.821Z,726.00
2023-05-05T07:14:05.785Z,670.00
2023-05-05T07:15:15.785Z,673.00
2023-05-05T07:16:06.853Z,673.00
2023-05-05T07:17:05.776Z,683.00
2023-05-05T07:18:05.798Z,736.00
2023-05-05T07:19:05.760Z,841.00
2023-05-05T07:20:05.997Z,880.00
2023-05-05T07:21:05.739Z,883.00
2023-05-05T07:22:05.743Z,942.00
2023-05-05T07:23:06.041Z,925.00
2023-05-05T07:24:05.729Z,918.00
2023-05-05T07:25:05.731Z,848.00
2023-05-05T07:26:05.720Z,817.00
2023-05-05T07:27:05.702Z,862.00
2023-05-05T07:28:05.703Z,980.00
2023-05-05T07:29:05.895Z,1002.00
2023-05-05T07:30:11.185Z,1124.00
2023-05-05T07:31:06.688Z,1133.00
2023-05-05T07:32:05.882Z,1196.00
2023-05-05T07:33:05.709Z,1336.00
2023-05-05T07:34:05.655Z,1585.00
2023-05-05T07:35:05.665Z,1931.00
2023-05-05T07:36:05.646Z,2038.00
2023-05-05T07:37:05.856Z,2039.00
2023-05-05T07:38:05.613Z,2081.00
2023-05-05T07:39:05.633Z,2178.00
2023-05-05T07:40:05.859Z,2264.00
2023-05-05T07:41:05.675Z,2325.00
2023-05-05T07:42:05.715Z,2374.00
2023-05-05T07:43:05.764Z,2408.00
2023-05-05T07:44:05.825Z,2431.00
2023-05-05T07:45:06.040Z,2442.00
2023-05-05T07:46:05.989Z,2385.00
2023-05-05T07:47:05.996Z,2263.00
2023-05-05T07:48:06.106Z,2331.00
2023-05-05T07:49:06.331Z,2362.00
2023-05-05T07:50:06.506Z,2395.00
2023-05-05T07:51:06.195Z,2408.00
2023-05-05T07:52:06.228Z,2421.00
2023-05-05T07:53:14.484Z,2428.00
2023-05-05T07:54:07.344Z,2352.00
2023-05-05T07:55:06.267Z,2391.00
2023-05-05T07:56:06.269Z,2430.00
2023-05-05T07:57:06.258Z,2452.00
2023-05-05T07:58:06.258Z,2456.00
2023-05-05T07:59:06.334Z,2413.00
2023-05-05T08:00:06.527Z,2443.00
2023-05-05T08:01:06.377Z,2445.00
2023-05-05T08:02:06.368Z,2472.00
2023-05-05T08:03:07.770Z,2468.00
2023-05-05T08:04:06.276Z,2488.00
2023-05-05T08:05:06.706Z,2489.00
2023-05-05T08:06:06.226Z,2468.00
2023-05-05T08:07:06.219Z,2393.00
2023-05-05T08:08:06.198Z,2336.00
2023-05-05T08:09:06.175Z,2320.00
2023-05-05T08:10:06.170Z,2183.00
2023-05-05T08:11:06.157Z,2298.00
2023-05-05T08:12:06.144Z,2387.00
2023-05-05T08:13:06.241Z,2412.00
2023-05-05T08:14:06.121Z,2428.00
2023-05-05T08:15:06.360Z,2454.00
2023-05-05T08:16:06.139Z,2463.00
2023-05-05T08:17:06.166Z,2476.00
2023-05-05T08:18:06.155Z,2474.00
2023-05-05T08:19:12.079Z,2483.00
2023-05-05T08:20:07.104Z,2376.00
2023-05-05T08:21:06.099Z,2114.00
2023-05-05T08:22:06.077Z,2207.00
2023-05-05T08:23:06.067Z,2182.00
2023-05-05T08:24:06.352Z,2141.00
2023-05-05T08:25:06.157Z,1901.00
2023-05-05T08:26:06.066Z,1548.00
2023-05-05T08:27:06.112Z,1157.00
2023-05-05T08:28:06.164Z,869.00
2023-05-05T08:29:06.204Z,742.00
2023-05-05T08:30:06.252Z,584.00
2023-05-05T08:31:06.313Z,520.00
2023-05-05T08:32:06.373Z,500.00
2023-05-05T08:33:06.557Z,454.00
2023-05-05T08:34:06.460Z,514.00
2023-05-05T08:35:06.854Z,500.00
2023-05-05T08:36:06.578Z,514.00
2023-05-05T08:37:06.632Z,567.00
2023-05-05T08:38:06.694Z,628.00
2023-05-05T08:39:06.739Z,655.00
2023-05-05T08:40:06.803Z,651.00
2023-05-05T08:41:06.883Z,641.00
2023-05-05T08:42:06.943Z,632.00
2023-05-05T08:43:06.975Z,655.00
2023-05-05T08:44:07.037Z,792.00
2023-05-05T08:45:07.247Z,950.00
2023-05-05T08:46:07.166Z,1081.00
2023-05-05T08:47:07.386Z,1222.00
2023-05-05T08:48:07.259Z,1226.00
2023-05-05T08:49:07.332Z,1098.00
2023-05-05T08:50:07.325Z,1030.00
2023-05-05T08:51:07.348Z,1003.00
2023-05-05T08:52:07.378Z,1051.00
2023-05-05T08:53:07.469Z,1101.00
2023-05-05T08:54:07.861Z,1216.00
2023-05-05T08:55:07.722Z,1273.00
2023-05-05T08:56:07.520Z,1135.00
2023-05-05T08:57:07.519Z,1076.00
2023-05-05T08:58:07.576Z,1058.00
2023-05-05T08:59:07.595Z,910.00
2023-05-05T09:00:07.600Z,888.00
2023-05-05T09:01:07.699Z,893.00
2023-05-05T09:02:07.677Z,848.00
2023-05-05T09:03:07.892Z,828.00
2023-05-05T09:04:07.742Z,682.00
2023-05-05T09:05:08.067Z,691.00
2023-05-05T09:06:07.775Z,778.00
2023-05-05T09:07:07.799Z,684.00
2023-05-05T09:08:07.806Z,707.00
2023-05-05T09:09:07.854Z,991.00
2023-05-05T09:10:07.872Z,939.00
2023-05-05T09:11:07.912Z,1160.00
2023-05-05T09:12:07.931Z,1259.00
2023-05-05T09:13:07.970Z,1319.00
2023-05-05T09:14:07.982Z,1395.00
2023-05-05T09:15:08.125Z,1532.00
2023-05-05T09:16:08.026Z,1504.00
2023-05-05T09:17:08.191Z,1467.00
2023-05-05T09:18:08.179Z,1416.00
2023-05-05T09:19:08.100Z,1279.00
2023-05-05T09:20:08.122Z,1315.00
2023-05-05T09:21:08.279Z,1467.00
2023-05-05T09:22:08.171Z,1528.00
2023-05-05T09:23:08.188Z,1870.00
2023-05-05T09:24:09.046Z,2112.00
2023-05-05T09:25:08.466Z,2201.00
2023-05-05T09:26:08.245Z,2016.00
2023-05-05T09:27:08.280Z,1727.00
2023-05-05T09:28:08.295Z,1600.00
2023-05-05T09:29:08.345Z,1598.00
2023-05-05T09:30:08.340Z,1572.00
2023-05-05T09:31:08.395Z,1548.00
2023-05-05T09:32:08.738Z,1621.00
2023-05-05T09:33:08.973Z,1419.00
2023-05-05T09:34:08.423Z,1329.00
2023-05-05T09:35:08.686Z,962.00
2023-05-05T09:36:08.473Z,1078.00
2023-05-05T09:37:08.553Z,1268.00
2023-05-05T09:38:08.875Z,1425.00
2023-05-05T09:39:08.576Z,1554.00
2023-05-05T09:40:08.594Z,1638.00
2023-05-05T09:41:08.662Z,1656.00
2023-05-05T09:42:08.673Z,1736.00
2023-05-05T09:43:08.709Z,1874.00
2023-05-05T09:44:08.739Z,1984.00
2023-05-05T09:45:08.906Z,2121.00
2023-05-05T09:46:08.881Z,2225.00
2023-05-05T09:47:21.969Z,2224.00
2023-05-05T09:48:09.857Z,2226.00
2023-05-05T09:49:08.805Z,2234.00
2023-05-05T09:50:09.039Z,2240.00
2023-05-05T09:51:08.811Z,2292.00
2023-05-05T09:52:08.817Z,2409.00
2023-05-05T09:53:08.950Z,2440.00
2023-05-05T09:54:08.791Z,2474.00
2023-05-05T09:55:08.770Z,2524.00
2023-05-05T09:56:08.798Z,2587.00
2023-05-05T09:57:08.768Z,2627.00
2023-05-05T09:58:08.795Z,2657.00
2023-05-05T09:59:08.741Z,2673.00
2023-05-05T10:00:09.054Z,2706.00
2023-05-05T10:01:08.767Z,2717.00
2023-05-05T10:02:08.709Z,2717.00
2023-05-05T10:03:08.787Z,2708.00
2023-05-05T10:04:08.699Z,2865.00
2023-05-05T10:05:08.977Z,2921.00
2023-05-05T10:06:08.736Z,2871.00
2023-05-05T10:07:08.747Z,2790.00
2023-05-05T10:08:08.775Z,2696.00
2023-05-05T10:09:08.810Z,2599.00
2023-05-05T10:10:09.035Z,2538.00
2023-05-05T10:11:08.849Z,2484.00
2023-05-05T10:12:08.916Z,2459.00
2023-05-05T10:13:08.935Z,2446.00
2023-05-05T10:14:08.928Z,2440.00
2023-05-05T10:15:08.963Z,2482.00
2023-05-05T10:16:09.077Z,2491.00
2023-05-05T10:17:09.019Z,2524.00
2023-05-05T10:18:09.044Z,2500.00
2023-05-05T10:19:09.069Z,2479.00
2023-05-05T10:20:09.254Z,2463.00
2023-05-05T10:21:09.138Z,2390.00
2023-05-05T10:22:09.161Z,1905.00
2023-05-05T10:23:09.182Z,1726.00
2023-05-05T10:24:09.187Z,1589.00
2023-05-05T10:25:09.293Z,1400.00
2023-05-05T10:26:09.235Z,1356.00
2023-05-05T10:27:10.570Z,1490.00
2023-05-05T10:28:09.231Z,1559.00
2023-05-05T10:29:09.222Z,1638.00
2023-05-05T10:30:09.574Z,1611.00
2023-05-05T10:31:20.334Z,1671.00
2023-05-05T10:32:33.538Z,1675.00
2023-05-05T10:33:30.020Z,1678.00
2023-05-05T10:34:10.413Z,1680.00
2023-05-05T10:35:09.206Z,1715.00
2023-05-05T10:36:09.188Z,1783.00
2023-05-05T10:37:09.189Z,1939.00
2023-05-05T10:38:09.175Z,2149.00
2023-05-05T10:39:09.178Z,2222.00
2023-05-05T10:40:09.345Z,2346.00
2023-05-05T10:41:09.148Z,2399.00
2023-05-05T10:42:09.131Z,2434.00
2023-05-05T10:43:09.133Z,2438.00
2023-05-05T10:44:09.158Z,2384.00
2023-05-05T10:45:09.169Z,2353.00
2023-05-05T10:46:09.133Z,2408.00
2023-05-05T10:47:09.105Z,2430.00
2023-05-05T10:48:09.255Z,2166.00
2023-05-05T10:49:11.118Z,2265.00
2023-05-05T10:50:09.376Z,2267.00
2023-05-05T10:51:09.078Z,2283.00
2023-05-05T10:52:09.071Z,2316.00
2023-05-05T10:53:09.071Z,2385.00
2023-05-05T10:54:09.078Z,2453.00
2023-05-05T10:55:09.047Z,2427.00
2023-05-05T10:56:09.028Z,2489.00
2023-05-05T10:57:09.098Z,2483.00
2023-05-05T10:58:09.046Z,2486.00
2023-05-05T10:59:09.026Z,2459.00
2023-05-05T11:00:09.268Z,2529.00
2023-05-05T11:01:09.038Z,3125.00
2023-05-05T11:02:09.000Z,3007.00
2023-05-05T11:03:09.051Z,2814.00
2023-05-05T11:04:09.091Z,2749.00
2023-05-05T11:05:09.005Z,2642.00
2023-05-05T11:06:08.972Z,2592.00
2023-05-05T11:07:11.764Z,2517.00
2023-05-05T11:08:09.938Z,2061.00
2023-05-05T11:09:08.951Z,2088.00
2023-05-05T11:10:09.564Z,2165.00
2023-05-05T11:11:08.930Z,2209.00
2023-05-05T11:12:08.929Z,1914.00
2023-05-05T11:13:09.037Z,1641.00
2023-05-05T11:14:08.913Z,1481.00
2023-05-05T11:15:08.916Z,1512.00
2023-05-05T11:16:08.915Z,1712.00
2023-05-05T11:17:08.897Z,1792.00
2023-05-05T11:18:09.018Z,1694.00
2023-05-05T11:19:08.854Z,1430.00
2023-05-05T11:20:09.323Z,1764.00
2023-05-05T11:21:08.862Z,1908.00
2023-05-05T11:22:08.860Z,1851.00
2023-05-05T11:23:08.850Z,1902.00
2023-05-05T11:24:08.824Z,2065.00
2023-05-05T11:25:08.828Z,1982.00
2023-05-05T11:26:08.805Z,1848.00
2023-05-05T11:27:08.835Z,1564.00
2023-05-05T11:28:08.896Z,1523.00
2023-05-05T11:29:08.941Z,1436.00
2023-05-05T11:30:09.052Z,1451.00
2023-05-05T11:31:08.967Z,690.00
2023-05-05T11:32:08.968Z,658.00
2023-05-05T11:33:09.007Z,660.00
2023-05-05T11:34:09.016Z,623.00
2023-05-05T11:35:09.052Z,655.00
2023-05-05T11:36:09.092Z,1179.00
2023-05-05T11:37:09.258Z,1170.00
2023-05-05T11:38:09.171Z,1094.00
2023-05-05T11:39:09.225Z,1284.00
2023-05-05T11:40:09.394Z,1293.00
2023-05-05T11:41:09.234Z,1360.00
2023-05-05T11:42:10.972Z,1447.00
2023-05-05T11:43:09.301Z,1494.00
2023-05-05T11:44:09.330Z,1594.00
2023-05-05T11:45:09.443Z,1691.00
2023-05-05T11:46:09.443Z,1807.00
2023-05-05T11:47:09.388Z,1898.00
2023-05-05T11:48:09.470Z,2028.00
2023-05-05T11:49:09.450Z,1887.00
2023-05-05T11:50:09.647Z,1826.00
2023-05-05T11:51:09.487Z,1840.00
2023-05-05T11:52:09.507Z,2037.00
2023-05-05T11:53:09.535Z,2162.00
2023-05-05T11:54:09.562Z,2196.00
2023-05-05T11:55:09.586Z,2260.00
2023-05-05T11:56:09.615Z,2261.00
2023-05-05T11:57:09.638Z,2247.00
2023-05-05T11:58:09.645Z,2143.00
2023-05-05T11:59:09.724Z,2127.00
2023-05-05T12:00:09.827Z,1913.00
2023-05-05T12:01:09.879Z,1826.00
2023-05-05T12:02:09.751Z,1814.00
2023-05-05T12:03:09.877Z,1807.00
2023-05-05T12:04:09.987Z,1690.00
2023-05-05T12:05:09.838Z,1576.00
2023-05-05T12:06:09.877Z,1810.00
2023-05-05T12:07:09.904Z,1562.00